Time;durP1;ratioP1;P1;durP2;ratioP2;P2;SDS_P1;SDS_P2;PMS_P1;PMS_P2;Temp;Humidity;BMP_temperature;BMP_pressure;BME280_temperature;BME280_humidity;BME280_pressure;Samples;Min_cycle;Max_cycle;Signal;HPM_P1;HPM_P2
2022/01/14 00:02:17;;;;;;;;;51.50;38.25;;;;;4.59;66.22;103299.66;5056731;28;45461;-76
2022/01/14 00:04:43;;;;;;;;;46.75;36.75;;;;;4.64;66.13;103304.78;5074189;28;45441;-76
2022/01/14 00:07:09;;;;;;;;;45.00;37.75;;;;;4.67;65.86;103302.75;5073422;28;45482;-75
2022/01/14 00:09:37;;;;;;;;;47.00;35.50;;;;;4.67;65.80;103302.75;5055044;28;45507;-75
2022/01/14 00:12:09;;;;;;;;;43.50;37.00;;;;;4.63;66.29;103286.75;5074954;28;45480;-82
2022/01/14 00:14:57;;;;;;;;;49.00;38.00;;;;;4.65;66.52;103282.94;5074890;28;45654;-82
2022/01/14 00:17:20;;;;;;;;;53.00;39.75;;;;;4.69;65.40;103283.63;5073734;28;45980;-83
2022/01/14 00:19:46;;;;;;;;;52.00;41.25;;;;;4.70;65.38;103283.50;5056456;28;47449;-82
2022/01/14 00:22:15;;;;;;;;;58.50;45.25;;;;;4.70;65.37;103282.59;5073560;28;45785;-82
2022/01/14 00:33:02;;;;;;;;;81.75;61.50;;;;;4.63;66.69;103287.63;5075885;28;45435;-84
2022/01/14 00:35:28;;;;;;;;;79.50;59.75;;;;;4.61;66.22;103289.59;5057657;28;45355;-83
2022/01/14 00:37:54;;;;;;;;;77.25;59.50;;;;;4.62;67.11;103294.03;5073698;28;46051;-83
2022/01/14 00:40:19;;;;;;;;;73.75;56.75;;;;;4.60;65.99;103290.56;5056270;28;48119;-77
2022/01/14 00:42:46;;;;;;;;;72.50;58.25;;;;;4.50;67.10;103267.72;5072943;28;45369;-76
2022/01/14 00:45:11;;;;;;;;;77.75;57.50;;;;;4.57;66.52;103278.03;5054518;28;45535;-77
2022/01/14 00:47:39;;;;;;;;;74.50;59.75;;;;;4.56;66.57;103278.16;5073683;28;45451;-76
2022/01/14 00:50:13;;;;;;;;;83.25;62.50;;;;;4.55;66.99;103268.25;5073702;28;46370;-76
2022/01/14 00:52:53;;;;;;;;;79.75;61.75;;;;;4.56;65.74;103265.41;5075872;28;45511;-76
2022/01/14 00:55:27;;;;;;;;;82.50;62.00;;;;;4.55;65.61;103280.00;5075972;28;45928;-83
2022/01/14 01:00:22;;;;;;;;;79.00;60.25;;;;;4.49;65.75;103269.56;5074344;28;45842;-76
2022/01/14 01:02:48;;;;;;;;;78.25;61.00;;;;;4.46;66.89;103268.88;5073624;28;45482;-75
2022/01/14 01:05:16;;;;;;;;;81.75;62.00;;;;;4.42;66.65;103263.66;5073073;28;45784;-76
2022/01/14 01:07:44;;;;;;;;;84.50;60.00;;;;;4.39;66.37;103261.16;5072876;28;45919;-75
2022/01/14 01:10:11;;;;;;;;;77.25;58.75;;;;;4.42;66.21;103279.09;5074167;28;45565;-83
2022/01/14 01:12:53;;;;;;;;;73.75;55.50;;;;;4.40;66.80;103271.06;5073677;28;45442;-76
2022/01/14 01:15:20;;;;;;;;;75.25;56.50;;;;;4.39;67.00;103274.75;5073857;28;45324;-77
2022/01/14 01:17:47;;;;;;;;;56.25;40.75;;;;;4.33;66.99;103258.88;5071176;28;46918;-74
2022/01/14 01:20:15;;;;;;;;;76.50;58.50;;;;;4.34;67.51;103268.78;5073017;28;45527;-75
2022/01/14 01:22:41;;;;;;;;;75.00;57.25;;;;;4.36;67.04;103269.53;5075331;28;45428;-82
2022/01/14 01:25:08;;;;;;;;;74.25;56.00;;;;;4.35;66.21;103264.19;5079579;28;45458;-83
2022/01/14 01:27:38;;;;;;;;;79.50;58.25;;;;;4.32;66.42;103265.28;5079034;28;46195;-83
2022/01/14 01:30:27;;;;;;;;;73.50;54.75;;;;;4.32;66.10;103261.69;5081999;28;45890;-84
2022/01/14 01:32:53;;;;;;;;;69.00;56.00;;;;;4.31;66.32;103262.66;5076507;28;45647;-86
2022/01/14 01:35:19;;;;;;;;;75.25;55.25;;;;;4.30;66.66;103261.81;5074490;28;45371;-82
2022/01/14 01:37:45;;;;;;;;;75.50;55.50;;;;;4.27;65.82;103258.41;5074989;28;45413;-82
2022/01/14 01:40:12;;;;;;;;;64.75;51.50;;;;;4.25;66.26;103258.50;5075957;28;46539;-81
2022/01/14 01:42:41;;;;;;;;;78.75;55.50;;;;;4.29;66.41;103272.78;5074858;28;45776;-82
2022/01/14 01:45:10;;;;;;;;;59.50;51.00;;;;;4.18;66.97;103252.66;5056451;28;45929;-76
2022/01/14 01:47:37;;;;;;;;;73.75;55.50;;;;;4.27;67.29;103274.72;5074634;28;45331;-83
2022/01/14 01:50:12;;;;;;;;;70.50;52.75;;;;;4.21;66.95;103276.03;5071818;28;46891;-82
2022/01/14 01:52:38;;;;;;;;;66.75;52.25;;;;;4.23;67.01;103274.91;5056713;28;45561;-80
2022/01/14 01:55:05;;;;;;;;;67.00;50.25;;;;;4.24;66.86;103276.66;5057392;28;45370;-82
2022/01/14 01:57:30;;;;;;;;;67.25;51.50;;;;;4.23;66.93;103268.63;5054247;28;46591;-75
2022/01/14 01:59:55;;;;;;;;;69.00;51.75;;;;;4.21;66.95;103265.16;5072212;28;46295;-75
2022/01/14 02:02:21;;;;;;;;;68.75;53.50;;;;;4.15;67.41;103254.72;5074841;28;45688;-81
2022/01/14 02:04:46;;;;;;;;;72.75;55.75;;;;;4.17;65.78;103252.75;5073771;28;45663;-81
2022/01/14 02:07:12;;;;;;;;;66.25;51.75;;;;;4.19;66.21;103262.53;5074816;28;45585;-81
2022/01/14 02:09:37;;;;;;;;;73.75;55.75;;;;;4.14;67.09;103247.53;5073500;28;45622;-82
2022/01/14 02:12:09;;;;;;;;;70.00;54.00;;;;;4.16;67.02;103251.00;5058441;28;45943;-82
2022/01/14 02:19:31;;;;;;;;;66.25;52.75;;;;;4.11;66.64;103250.47;5077690;28;45761;-83
2022/01/14 02:22:13;;;;;;;;;66.50;51.50;;;;;4.15;66.69;103252.00;5076980;28;45693;-75
2022/01/14 02:27:14;;;;;;;;;68.25;52.00;;;;;4.10;67.34;103244.13;5074158;28;45515;-75
2022/01/14 02:29:40;;;;;;;;;55.00;45.25;;;;;4.10;67.19;103246.00;5088471;28;45783;-82
2022/01/14 02:32:07;;;;;;;;;59.25;47.00;;;;;4.08;67.07;103237.94;5082214;28;45460;-76
2022/01/14 02:34:32;;;;;;;;;65.50;50.75;;;;;4.09;67.47;103246.97;5056105;28;45299;-74
2022/01/14 02:36:58;;;;;;;;;59.00;47.25;;;;;4.07;66.93;103233.47;5074501;28;45516;-74
2022/01/14 02:39:24;;;;;;;;;65.00;49.25;;;;;4.04;66.34;103229.16;5074410;28;46405;-75
2022/01/14 02:41:51;;;;;;;;;61.25;47.00;;;;;4.06;66.59;103227.19;5056194;28;45249;-75
2022/01/14 02:44:24;;;;;;;;;59.75;48.00;;;;;4.06;66.57;103224.47;5054564;28;45513;-74
2022/01/14 02:46:56;;;;;;;;;62.50;50.75;;;;;4.07;66.56;103230.78;5072538;28;45862;-76
2022/01/14 02:49:25;;;;;;;;;70.25;50.25;;;;;4.05;65.86;103232.72;5054679;28;45872;-75
2022/01/14 02:51:51;;;;;;;;;66.75;48.50;;;;;4.02;65.81;103228.38;5072475;28;45789;-75
2022/01/14 02:54:21;;;;;;;;;68.00;50.75;;;;;3.99;66.53;103239.44;5071147;28;45414;-74
2022/01/14 02:56:50;;;;;;;;;63.25;48.75;;;;;4.01;66.40;103233.91;5071384;28;45460;-77
2022/01/14 02:59:17;;;;;;;;;61.50;49.50;;;;;4.00;66.91;103232.19;5069749;28;46813;-76
2022/01/14 03:01:44;;;;;;;;;59.50;49.75;;;;;3.95;66.00;103215.31;5053614;28;46029;-76
2022/01/14 03:04:11;;;;;;;;;68.50;53.00;;;;;4.01;66.72;103221.22;5071732;28;45536;-76
2022/01/14 03:06:36;;;;;;;;;62.75;51.00;;;;;4.00;66.92;103214.03;5071613;28;45532;-76
2022/01/14 03:09:03;;;;;;;;;66.75;51.50;;;;;3.99;67.62;103209.56;5071515;28;45709;-77
2022/01/14 03:11:37;;;;;;;;;59.50;48.00;;;;;4.00;67.24;103210.47;5053339;28;45625;-76
2022/01/14 03:14:03;;;;;;;;;70.50;50.50;;;;;3.99;66.40;103203.28;5070232;28;45508;-76
2022/01/14 03:16:31;;;;;;;;;72.25;52.00;;;;;3.99;67.22;103190.56;5071733;28;45952;-76
2022/01/14 03:19:06;;;;;;;;;68.00;52.75;;;;;4.01;67.36;103193.19;5072135;28;46644;-77
2022/01/14 03:21:37;;;;;;;;;69.00;54.75;;;;;3.99;67.23;103203.28;5053764;28;45651;-76
2022/01/14 03:24:15;;;;;;;;;67.50;52.50;;;;;3.95;67.48;103182.75;5076053;28;45825;-80
2022/01/14 03:26:41;;;;;;;;;68.75;54.00;;;;;4.00;67.50;103195.03;5084328;28;44861;-82
2022/01/14 03:29:06;;;;;;;;;67.75;52.25;;;;;3.97;67.27;103187.09;5076624;28;45723;-82
2022/01/14 03:31:32;;;;;;;;;74.75;53.25;;;;;4.01;68.02;103196.78;5074119;28;45778;-82
2022/01/14 03:33:57;;;;;;;;;68.50;51.25;;;;;4.02;67.81;103189.50;5074897;28;45766;-82
2022/01/14 03:36:23;;;;;;;;;69.00;52.00;;;;;4.00;67.33;103186.88;5072971;28;45682;-81
2022/01/14 03:38:48;;;;;;;;;64.50;51.75;;;;;4.00;68.31;103180.59;5072617;28;45825;-81
2022/01/14 03:41:14;;;;;;;;;65.25;50.25;;;;;3.99;67.83;103179.72;5056331;28;45777;-79
2022/01/14 03:43:41;;;;;;;;;69.50;52.50;;;;;3.99;67.57;103182.41;5075256;28;45420;-79
2022/01/14 03:46:06;;;;;;;;;72.50;53.00;;;;;4.01;68.36;103194.06;5059543;28;45285;-81
2022/01/14 03:48:32;;;;;;;;;58.50;46.50;;;;;3.94;68.50;103179.16;5055172;28;47218;-80
2022/01/14 03:50:58;;;;;;;;;58.50;44.25;;;;;3.98;66.80;103199.72;5056779;28;45355;-79
2022/01/14 03:53:23;;;;;;;;;65.50;49.75;;;;;3.98;67.28;103187.97;5075219;28;45966;-81
2022/01/14 03:55:49;;;;;;;;;54.50;45.25;;;;;3.93;67.16;103184.69;5084791;28;45422;-81
2022/01/14 03:58:14;;;;;;;;;57.50;42.75;;;;;3.97;66.70;103187.09;5083189;28;45389;-79
2022/01/14 04:00:40;;;;;;;;;53.25;38.50;;;;;3.95;67.52;103183.63;5078857;28;45780;-80
2022/01/14 04:03:06;;;;;;;;;58.25;44.75;;;;;3.93;67.05;103180.13;5076276;28;45908;-81
2022/01/14 04:05:32;;;;;;;;;53.75;42.50;;;;;3.95;67.45;103178.22;5075948;28;45442;-81
2022/01/14 04:07:58;;;;;;;;;55.25;44.75;;;;;3.95;67.90;103188.16;5078209;28;46486;-80
2022/01/14 04:10:25;;;;;;;;;59.75;45.25;;;;;3.92;67.99;103178.38;5082972;28;45362;-81
2022/01/14 04:13:01;;;;;;;;;58.75;43.75;;;;;3.94;67.25;103184.59;5081609;28;45393;-82
2022/01/14 04:15:37;;;;;;;;;59.50;42.00;;;;;3.93;67.22;103192.84;5076951;28;45787;-80
2022/01/14 04:18:08;;;;;;;;;60.75;42.50;;;;;3.92;67.77;103183.81;5073768;28;47294;-81
2022/01/14 04:20:36;;;;;;;;;58.50;45.25;;;;;3.91;67.72;103182.09;5056523;28;45735;-81
2022/01/14 04:23:04;;;;;;;;;54.75;45.00;;;;;3.92;67.88;103180.25;5058578;28;45682;-82
2022/01/14 04:25:31;;;;;;;;;53.75;38.50;;;;;3.91;67.75;103183.91;5075387;28;45505;-75
2022/01/14 04:27:56;;;;;;;;;53.25;41.00;;;;;3.87;67.32;103186.00;5073224;28;46258;-76
2022/01/14 04:30:22;;;;;;;;;55.25;44.00;;;;;3.89;67.83;103178.59;5073805;28;45854;-81
2022/01/14 04:32:48;;;;;;;;;48.75;42.50;;;;;3.81;67.65;103167.41;5053400;28;45890;-81
2022/01/14 04:35:14;;;;;;;;;57.00;43.75;;;;;3.84;67.90;103167.19;5073597;28;46046;-81
2022/01/14 04:37:40;;;;;;;;;55.50;41.75;;;;;3.85;67.73;103177.94;5074817;28;45579;-81
2022/01/14 04:40:06;;;;;;;;;54.25;45.50;;;;;3.83;67.25;103165.44;5074807;28;45413;-80
2022/01/14 04:42:32;;;;;;;;;54.25;43.50;;;;;3.78;66.13;103154.03;5074116;28;45641;-80
2022/01/14 04:44:58;;;;;;;;;57.75;42.50;;;;;3.84;67.41;103165.34;5073699;28;45755;-80
2022/01/14 04:47:33;;;;;;;;;51.25;41.25;;;;;3.84;67.57;103164.47;5073434;28;46769;-76
2022/01/14 04:50:00;;;;;;;;;56.50;46.25;;;;;3.85;67.49;103164.38;5073252;28;45871;-74
2022/01/14 04:52:27;;;;;;;;;52.75;44.25;;;;;3.84;66.26;103159.06;5072514;28;45419;-72
2022/01/14 04:54:53;;;;;;;;;60.50;46.50;;;;;3.84;67.98;103156.34;5073155;28;45869;-75
2022/01/14 04:57:21;;;;;;;;;52.75;43.25;;;;;3.85;67.67;103167.09;5073059;28;46378;-75
2022/01/14 04:59:48;;;;;;;;;53.50;42.75;;;;;3.81;66.95;103154.69;5072706;28;45609;-76
2022/01/14 05:02:14;;;;;;;;;57.00;44.50;;;;;3.83;66.78;103151.88;5072828;28;45508;-76
2022/01/14 05:04:41;;;;;;;;;61.00;46.25;;;;;3.83;66.83;103151.88;5072616;28;46068;-76
2022/01/14 05:07:10;;;;;;;;;64.50;48.25;;;;;3.80;67.83;103149.38;5071858;28;45583;-75
2022/01/14 05:09:40;;;;;;;;;56.25;44.25;;;;;3.80;66.93;103141.22;5073027;28;45855;-81
2022/01/14 05:12:09;;;;;;;;;53.50;38.00;;;;;3.78;66.59;103141.34;5055507;28;45882;-82
2022/01/14 05:14:36;;;;;;;;;56.75;44.25;;;;;3.76;67.40;103128.84;5074244;27;45671;-80
2022/01/14 05:17:02;;;;;;;;;49.75;40.50;;;;;3.63;66.33;103107.97;5075680;28;45416;-83
2022/01/14 05:19:27;;;;;;;;;56.50;43.25;;;;;3.66;67.43;103118.63;5058186;28;45419;-83
2022/01/14 05:21:53;;;;;;;;;55.75;42.25;;;;;3.67;66.65;103122.22;5073594;28;45642;-83
2022/01/14 05:24:18;;;;;;;;;61.50;47.00;;;;;3.66;67.79;103125.91;5074543;28;45850;-82
2022/01/14 05:26:44;;;;;;;;;52.00;40.75;;;;;3.68;67.71;103132.06;5074750;28;46065;-81
2022/01/14 05:29:09;;;;;;;;;57.00;43.50;;;;;3.67;67.72;103136.66;5075091;28;45584;-82
2022/01/14 05:31:50;;;;;;;;;48.75;37.25;;;;;3.71;67.65;103153.56;5075508;28;45367;-82
2022/01/14 05:34:15;;;;;;;;;55.25;41.75;;;;;3.68;67.10;103151.97;5074118;28;45538;-82
2022/01/14 05:36:41;;;;;;;;;51.75;42.75;;;;;3.74;66.82;103147.06;5075382;28;46151;-83
2022/01/14 05:39:09;;;;;;;;;50.25;40.75;;;;;3.74;66.95;103142.50;5058603;28;45450;-81
2022/01/14 05:41:35;;;;;;;;;49.75;40.00;;;;;3.77;67.54;103149.59;5078680;28;45807;-83
2022/01/14 05:44:02;;;;;;;;;47.00;42.00;;;;;3.77;67.74;103153.16;5073961;28;45655;-83
2022/01/14 05:46:28;;;;;;;;;56.50;42.50;;;;;3.75;67.21;103152.41;5056318;28;47993;-79
2022/01/14 05:48:53;;;;;;;;;51.50;40.00;;;;;3.79;67.50;103161.22;5058567;28;45898;-80
2022/01/14 05:51:19;;;;;;;;;51.25;41.25;;;;;3.79;66.84;103147.66;5059835;27;46081;-80
2022/01/14 05:53:44;;;;;;;;;64.00;51.25;;;;;3.79;67.18;103150.38;5077094;27;45381;-79
2022/01/14 05:56:09;;;;;;;;;56.25;43.00;;;;;3.81;67.73;103149.25;5083825;27;46673;-80
2022/01/14 05:58:35;;;;;;;;;57.50;43.25;;;;;3.81;67.80;103143.84;5093764;27;44724;-82
2022/01/14 06:01:00;;;;;;;;;50.50;38.75;;;;;3.81;67.99;103140.25;5076660;27;45367;-79
2022/01/14 06:03:26;;;;;;;;;50.25;38.50;;;;;3.86;68.04;103148.94;5075346;28;45737;-79
2022/01/14 06:05:51;;;;;;;;;53.75;39.50;;;;;3.89;66.71;103154.16;5071309;27;47027;-81
2022/01/14 06:08:17;;;;;;;;;47.75;37.75;;;;;3.87;67.45;103143.41;5056077;28;45484;-81
2022/01/14 06:10:42;;;;;;;;;47.50;41.25;;;;;3.86;67.77;103140.81;5039642;28;45380;-82
2022/01/14 06:13:08;;;;;;;;;47.25;39.25;;;;;3.86;67.33;103144.41;5068856;28;45451;-81
2022/01/14 06:15:33;;;;;;;;;50.25;39.50;;;;;3.89;68.26;103144.19;5068961;27;45820;-79
2022/01/14 06:17:59;;;;;;;;;47.75;37.25;;;;;3.89;66.82;103143.31;5081465;27;45819;-79
2022/01/14 06:20:24;;;;;;;;;48.25;38.75;;;;;3.88;68.20;103134.31;5076747;27;45549;-76
2022/01/14 06:22:50;;;;;;;;;42.50;36.00;;;;;3.93;66.87;103150.28;5066944;27;45473;-76
2022/01/14 06:25:16;;;;;;;;;45.75;36.25;;;;;3.85;67.98;103142.66;5072612;27;45776;-75
2022/01/14 06:27:41;;;;;;;;;47.50;40.25;;;;;3.93;67.88;103152.13;5069132;27;45758;-76
2022/01/14 06:30:07;;;;;;;;;54.00;41.50;;;;;3.80;68.21;103135.81;5075915;27;45824;-76
2022/01/14 06:32:41;;;;;;;;;57.25;41.00;;;;;3.91;67.10;103145.91;5071763;27;45928;-77
2022/01/14 06:35:13;;;;;;;;;54.00;38.50;;;;;3.96;67.15;103157.34;5070910;28;46347;-73
2022/01/14 06:37:41;;;;;;;;;44.25;39.75;;;;;3.98;66.87;103155.38;5072664;28;45817;-72
2022/01/14 06:40:11;;;;;;;;;48.50;42.75;;;;;3.98;68.08;103160.81;5073403;28;45629;-72
2022/01/14 06:42:36;;;;;;;;;53.50;39.00;;;;;3.95;66.39;103147.44;5057693;28;45932;-72
2022/01/14 06:45:04;;;;;;;;;44.75;38.00;;;;;3.99;67.56;103144.41;5071221;28;47131;-71
2022/01/14 06:47:30;;;;;;;;;43.00;36.00;;;;;4.00;66.88;103153.44;5073872;28;45461;-72
2022/01/14 06:49:56;;;;;;;;;56.25;42.25;;;;;3.94;67.10;103149.31;5076992;27;45814;-73
2022/01/14 06:52:22;;;;;;;;;43.75;37.75;;;;;3.97;67.60;103140.94;5072649;28;45453;-72
2022/01/14 06:54:47;;;;;;;;;47.75;39.00;;;;;3.98;66.87;103145.41;5073940;28;46137;-72
2022/01/14 06:57:16;;;;;;;;;54.00;41.75;;;;;3.97;66.80;103140.09;5074780;28;45738;-72
2022/01/14 06:59:48;;;;;;;;;52.00;40.00;;;;;3.95;66.85;103140.19;5076067;28;45734;-71
2022/01/14 07:02:13;;;;;;;;;49.75;37.75;;;;;3.94;67.58;103141.16;5073411;28;45437;-72
2022/01/14 07:04:39;;;;;;;;;50.75;40.25;;;;;3.92;67.13;103139.53;5067825;28;45783;-73
2022/01/14 07:07:08;;;;;;;;;53.00;43.00;;;;;3.90;67.24;103147.78;5073238;28;45379;-72
2022/01/14 07:09:34;;;;;;;;;54.75;42.00;;;;;3.88;66.69;103150.59;5072165;28;45730;-72
2022/01/14 07:12:02;;;;;;;;;51.25;41.00;;;;;3.84;67.72;103150.91;5071394;27;46088;-71
2022/01/14 07:14:29;;;;;;;;;54.00;42.25;;;;;3.84;66.50;103150.91;5067533;27;45886;-72
2022/01/14 07:16:58;;;;;;;;;51.25;40.25;;;;;3.82;67.17;103142.00;5053276;28;45637;-72
2022/01/14 07:19:23;;;;;;;;;50.00;41.75;;;;;3.79;66.91;103134.94;5068190;27;46077;-72
2022/01/14 07:21:49;;;;;;;;;48.50;40.00;;;;;3.77;67.88;103136.00;5069455;28;45918;-72
2022/01/14 07:24:15;;;;;;;;;52.50;41.25;;;;;3.72;67.42;103139.91;5068945;27;45591;-72
2022/01/14 07:26:41;;;;;;;;;55.25;41.50;;;;;3.69;67.16;103129.25;5052852;28;45529;-71
2022/01/14 07:29:07;;;;;;;;;49.25;42.00;;;;;3.65;68.01;103126.88;5070044;28;45881;-71
2022/01/14 07:31:33;;;;;;;;;52.75;41.25;;;;;3.60;68.15;103120.88;5063496;28;46203;-73
2022/01/14 07:33:59;;;;;;;;;50.75;39.75;;;;;3.60;67.60;103129.03;5072067;28;45544;-72
2022/01/14 07:36:24;;;;;;;;;49.75;39.00;;;;;3.57;67.07;103134.66;5071713;28;45632;-73
2022/01/14 07:38:50;;;;;;;;;51.75;41.50;;;;;3.53;67.68;103134.88;5066808;28;45630;-72
2022/01/14 07:41:16;;;;;;;;;48.50;39.00;;;;;3.53;67.34;103145.72;5071288;28;45852;-73
2022/01/14 07:43:46;;;;;;;;;44.75;35.25;;;;;3.49;67.27;103133.34;5067185;27;45516;-70
2022/01/14 07:46:12;;;;;;;;;51.50;40.50;;;;;3.48;67.22;103141.59;5060357;28;45660;-79
2022/01/14 07:48:37;;;;;;;;;56.25;42.00;;;;;3.45;67.68;103150.78;5071205;28;45450;-80
2022/01/14 07:51:03;;;;;;;;;53.25;41.75;;;;;3.46;67.83;103146.25;5064328;27;45970;-79
2022/01/14 07:53:28;;;;;;;;;59.50;45.00;;;;;3.45;68.67;103150.78;5071950;28;45582;-79
2022/01/14 07:55:54;;;;;;;;;45.50;36.50;;;;;3.47;67.40;103151.56;5070967;28;45720;-79
2022/01/14 07:58:21;;;;;;;;;50.75;39.00;;;;;3.49;67.54;103151.47;5071136;28;45690;-78
2022/01/14 08:00:46;;;;;;;;;60.75;44.00;;;;;3.53;67.03;103152.97;5066668;27;45616;-79
2022/01/14 08:03:12;;;;;;;;;54.75;43.75;;;;;3.56;67.84;103150.06;5066220;27;46539;-79
2022/01/14 08:05:37;;;;;;;;;43.75;38.50;;;;;3.58;67.04;103158.09;5063081;27;45524;-78
2022/01/14 08:08:04;;;;;;;;;53.00;42.00;;;;;3.59;67.39;103154.41;5053822;27;45589;-78
2022/01/14 08:10:34;;;;;;;;;46.75;38.50;;;;;3.62;66.83;103154.22;5072651;27;45961;-78
2022/01/14 08:12:59;;;;;;;;;57.50;44.25;;;;;3.62;68.13;103160.53;5071764;27;45618;-79
2022/01/14 08:15:25;;;;;;;;;59.75;46.50;;;;;3.66;68.15;103162.03;5074682;28;45474;-77
2022/01/14 08:17:50;;;;;;;;;52.50;43.00;;;;;3.65;67.14;103159.41;5072014;28;45555;-78
2022/01/14 08:20:19;;;;;;;;;51.50;39.75;;;;;3.66;67.73;103159.31;5073207;28;45719;-79
2022/01/14 08:22:45;;;;;;;;;58.25;41.50;;;;;3.70;67.93;103168.16;5076997;28;45522;-78
2022/01/14 08:25:11;;;;;;;;;55.75;43.75;;;;;3.70;66.74;103158.16;5056914;28;45911;-80
2022/01/14 08:27:37;;;;;;;;;58.25;43.25;;;;;3.71;67.07;103170.75;5080573;28;44932;-78
2022/01/14 08:30:05;;;;;;;;;56.50;44.50;;;;;3.76;66.75;103166.84;5061233;28;46409;-77
2022/01/14 08:32:31;;;;;;;;;53.00;40.50;;;;;3.77;67.74;103165.88;5075137;27;46219;-79
2022/01/14 08:34:56;;;;;;;;;58.50;43.00;;;;;3.80;66.44;103171.09;5053799;27;45955;-78
2022/01/14 08:37:25;;;;;;;;;55.25;42.25;;;;;3.84;66.38;103162.63;5080587;28;45735;-77
2022/01/14 08:39:51;;;;;;;;;51.00;43.25;;;;;3.91;67.71;103171.22;5086053;28;45517;-78
2022/01/14 08:42:17;;;;;;;;;56.50;45.75;;;;;3.98;67.01;103171.66;5067123;28;47102;-78
2022/01/14 08:44:44;;;;;;;;;53.25;42.50;;;;;3.95;66.08;103156.47;5084916;27;44877;-79
2022/01/14 08:47:11;;;;;;;;;60.75;45.75;;;;;4.02;66.15;103168.63;5069014;28;46166;-78
2022/01/14 08:49:41;;;;;;;;;58.75;47.25;;;;;4.06;66.11;103167.47;5081575;27;45793;-79
2022/01/14 08:52:14;;;;;;;;;54.50;39.75;;;;;4.01;67.25;103153.34;5070493;27;45608;-77
2022/01/14 08:54:44;;;;;;;;;57.00;44.50;;;;;4.12;67.18;103170.75;5087257;27;44820;-78
2022/01/14 08:57:10;;;;;;;;;57.25;46.00;;;;;4.18;65.95;103173.03;5068269;28;44852;-78
2022/01/14 08:59:37;;;;;;;;;59.50;45.00;;;;;4.34;65.71;103168.25;5081060;28;45484;-77
2022/01/14 09:02:07;;;;;;;;;55.75;43.75;;;;;4.55;65.59;103099.75;5065244;28;46188;-80
2022/01/14 09:04:42;;;;;;;;;55.50;44.25;;;;;5.71;63.44;103154.63;5081729;28;44776;-80
2022/01/14 09:07:11;;;;;;;;;55.75;42.50;;;;;6.57;61.29;103146.19;5060160;28;45490;-79
2022/01/14 09:09:37;;;;;;;;;65.75;48.50;;;;;7.35;59.64;103145.25;5059127;28;46134;-79
2022/01/14 09:12:02;;;;;;;;;64.25;48.50;;;;;8.08;57.98;103150.91;5071265;28;46263;-79
2022/01/14 09:15:01;;;;;;;;;;;;;;;;;;;;;
2022/01/14 09:17:28;;;;;;;;;67.25;52.00;;;;;9.52;54.27;103140.84;5078992;28;68957;-78
2022/01/14 09:19:53;;;;;;;;;69.25;52.75;;;;;10.06;52.63;103144.88;5058448;28;47755;-79
2022/01/14 09:22:34;;;;;;;;;66.50;52.25;;;;;10.59;51.81;103143.47;5076975;28;46452;-79
2022/01/14 09:25:33;;;;;;;;;62.50;47.00;;;;;11.05;49.80;103139.97;5081488;28;45633;-77
2022/01/14 09:27:59;;;;;;;;;62.50;49.25;;;;;11.55;48.85;103144.13;4983626;28;44964;-78
2022/01/14 09:30:36;;;;;;;;;60.00;46.00;;;;;11.88;48.23;103130.69;5072284;28;45313;-78
2022/01/14 09:33:21;;;;;;;;;62.25;46.50;;;;;12.16;47.10;103125.94;5069060;28;45789;-79
2022/01/14 09:35:47;;;;;;;;;59.75;46.00;;;;;12.44;45.58;103140.41;5062657;28;45783;-79
2022/01/14 09:38:13;;;;;;;;;53.25;43.00;;;;;12.50;45.20;103126.00;5077408;28;45441;-78
2022/01/14 09:40:42;;;;;;;;;55.00;43.00;;;;;12.69;45.04;103144.19;5085079;27;45753;-78
2022/01/14 09:43:11;;;;;;;;;53.50;44.75;;;;;12.85;44.05;103135.09;5065154;27;46268;-79
2022/01/14 09:45:37;;;;;;;;;50.25;39.00;;;;;12.94;44.48;103122.25;5079811;27;45730;-79
2022/01/14 09:48:02;;;;;;;;;53.00;42.00;;;;;13.14;44.35;103139.34;5078845;28;45315;-79
2022/01/14 09:50:28;;;;;;;;;50.50;42.00;;;;;13.17;43.15;103125.25;5061208;28;46516;-79
2022/01/14 09:52:54;;;;;;;;;53.50;41.75;;;;;13.36;42.72;103143.41;5079514;28;45765;-78
2022/01/14 09:55:21;;;;;;;;;51.50;41.00;;;;;13.41;43.10;103130.00;5080157;28;45536;-78
2022/01/14 09:57:48;;;;;;;;;51.25;41.75;;;;;13.46;42.91;103123.09;5079981;28;45492;-79
2022/01/14 10:00:14;;;;;;;;;53.00;41.75;;;;;13.48;42.36;103129.31;5079604;27;45453;-79
2022/01/14 10:02:43;;;;;;;;;49.00;38.00;;;;;13.62;42.35;103147.09;5072161;27;45687;-78
2022/01/14 10:05:30;;;;;;;;;53.75;41.50;;;;;13.75;42.02;103140.03;5075316;27;45544;-73
2022/01/14 10:08:21;;;;;;;;;50.25;40.50;;;;;13.89;42.20;103145.91;5048213;28;46047;-73
2022/01/14 10:11:05;;;;;;;;;53.75;40.25;;;;;14.04;41.57;103144.19;5064478;28;45486;-72
2022/01/14 10:13:38;;;;;;;;;45.75;38.00;;;;;14.06;40.50;103139.34;5051868;28;46715;-70
2022/01/14 10:16:09;;;;;;;;;47.25;36.50;;;;;14.16;41.38;103136.44;5069895;28;45671;-73
2022/01/14 10:18:51;;;;;;;;;49.75;39.00;;;;;14.26;41.04;103134.31;5069776;28;45382;-73
2022/01/14 10:21:41;;;;;;;;;49.00;39.75;;;;;14.43;41.00;103137.03;5073729;27;45805;-72
2022/01/14 10:24:13;;;;;;;;;38.50;32.75;;;;;14.57;40.27;103139.09;5065741;28;46109;-71
2022/01/14 10:26:53;;;;;;;;;47.00;36.50;;;;;14.50;39.61;103140.84;5055419;28;45320;-72
2022/01/14 10:29:34;;;;;;;;;50.75;40.25;;;;;14.31;39.84;103142.06;5067310;28;45387;-72
2022/01/14 10:32:01;;;;;;;;;47.75;38.50;;;;;14.21;39.38;103139.50;5069886;28;46146;-73
2022/01/14 10:34:28;;;;;;;;;44.00;37.75;;;;;14.07;40.18;103141.09;5067097;28;45485;-72
2022/01/14 10:37:12;;;;;;;;;46.00;39.00;;;;;13.98;40.24;103142.09;5064122;28;45433;-73
2022/01/14 10:39:47;;;;;;;;;44.00;36.50;;;;;13.86;40.41;103144.38;5062692;28;45986;-74
2022/01/14 10:42:29;;;;;;;;;46.25;36.50;;;;;13.68;40.35;103146.41;5068332;27;45879;-73
2022/01/14 10:45:09;;;;;;;;;41.00;35.50;;;;;13.50;40.24;103139.16;5052801;28;46425;-73
2022/01/14 10:47:34;;;;;;;;;50.00;37.25;;;;;13.27;40.95;103138.03;5044146;28;45461;-73
2022/01/14 10:50:00;;;;;;;;;48.25;36.00;;;;;13.06;41.01;103131.06;5046860;28;45422;-73
2022/01/14 10:52:27;;;;;;;;;45.75;34.50;;;;;12.81;41.37;103106.16;5050262;28;45564;-75
2022/01/14 10:54:58;;;;;;;;;50.25;39.00;;;;;12.75;41.89;103111.50;5029695;28;45505;-72
2022/01/14 10:57:29;;;;;;;;;48.00;36.75;;;;;12.62;42.26;103110.06;5051121;28;45463;-72
2022/01/14 11:00:17;;;;;;;;;50.75;42.00;;;;;12.45;42.50;103106.34;5051254;28;45805;-73
2022/01/14 11:02:50;;;;;;;;;53.25;41.00;;;;;12.36;43.07;103110.97;5045527;28;46117;-75
2022/01/14 11:05:18;;;;;;;;;54.25;42.25;;;;;12.08;43.40;103104.75;5048514;28;46328;-71
2022/01/14 11:07:47;;;;;;;;;47.50;39.75;;;;;12.00;43.55;103107.41;5048330;28;45500;-73
2022/01/14 11:10:29;;;;;;;;;48.25;40.50;;;;;11.95;44.11;103105.16;5051320;28;45621;-73
2022/01/14 11:12:56;;;;;;;;;51.00;41.50;;;;;11.91;44.26;103105.59;5045397;28;45578;-73
2022/01/14 11:15:24;;;;;;;;;50.00;41.25;;;;;11.87;44.53;103101.44;5041121;28;45368;-80
2022/01/14 11:17:52;;;;;;;;;52.25;42.50;;;;;11.80;44.66;103101.22;5053419;28;46030;-79
2022/01/14 11:20:29;;;;;;;;;53.75;41.00;;;;;11.74;44.57;103088.97;5046117;28;45697;-72
2022/01/14 11:23:17;;;;;;;;;57.50;45.25;;;;;11.66;44.48;103094.38;5048504;28;45758;-72
2022/01/14 11:25:44;;;;;;;;;53.75;43.50;;;;;11.59;44.80;103090.56;5039185;28;45500;-77
2022/01/14 11:28:11;;;;;;;;;51.50;40.50;;;;;11.49;45.01;103086.00;5034559;28;45872;-78
2022/01/14 11:30:40;;;;;;;;;55.75;43.50;;;;;11.41;45.37;103077.69;5046235;28;47001;-73
2022/01/14 11:33:07;;;;;;;;;53.00;41.25;;;;;11.39;45.09;103087.09;5030753;28;45880;-77
2022/01/14 11:35:36;;;;;;;;;58.75;46.00;;;;;11.32;45.40;103084.13;5051897;28;46313;-73
2022/01/14 11:38:03;;;;;;;;;57.25;45.50;;;;;11.25;45.56;103080.28;5037543;28;45870;-74
2022/01/14 11:40:47;;;;;;;;;53.25;43.50;;;;;11.25;46.04;103081.13;5050705;28;45556;-77
2022/01/14 11:43:39;;;;;;;;;57.50;45.00;;;;;11.25;45.60;103074.78;5050810;28;45553;-77